Chicago, Illinois
Current Conditions -  °F | °C
As of 5:53 AM on Tuesday 21 Oct 2014 (Local Time) from KMDW Reporting Station
Overcast Overcast  
Wind Chill: 11°   Ceiling: 5000
Heat Index: 11°   Visibility: 10mi
Dew Point:   Wind: 9mph
Humidity: 74%   Direction: 350°N
Pressure: 30.06"   Gusts: NA
Location:  41.88°N, 87.63°W
Report Text: KMDW 211053Z 35008KT 10SM FEW020 OVC050 11/06 A3006 RMK AO2 SLP181 T01060061
Loading
Personal Weather Stations






























Interactive Weather Map
Tropical Storm Tracking
New forecast layout! Learn more

10-Day Weather Forecast

Advertisements
Track Severe Weather on mobile